createdAt,value
2022-12-08T00:00:01.702Z,100.00
2022-12-08T00:02:38.694Z,100.00
2022-12-08T00:05:24.455Z,100.00
2022-12-08T00:08:09.677Z,100.00
2022-12-08T00:10:51.537Z,100.00
2022-12-08T00:13:18.072Z,100.00
2022-12-08T00:15:44.498Z,100.00
2022-12-08T00:18:10.945Z,100.00
2022-12-08T00:20:37.473Z,100.00
2022-12-08T00:23:04.358Z,100.00
2022-12-08T00:25:31.557Z,100.00
2022-12-08T00:27:58.040Z,100.00
2022-12-08T00:30:24.772Z,100.00
2022-12-08T00:32:51.204Z,100.00
2022-12-08T00:35:17.641Z,100.00
2022-12-08T00:37:44.085Z,100.00
2022-12-08T00:40:10.629Z,100.00
2022-12-08T00:42:37.133Z,100.00
2022-12-08T00:45:03.713Z,100.00
2022-12-08T00:47:30.174Z,100.00
2022-12-08T00:49:56.609Z,100.00
2022-12-08T00:52:23.088Z,100.00
2022-12-08T00:54:49.528Z,100.00
2022-12-08T00:57:16.027Z,100.00
2022-12-08T00:59:42.448Z,100.00
2022-12-08T01:02:08.896Z,100.00
2022-12-08T01:04:35.940Z,100.00
2022-12-08T01:07:02.408Z,100.00
2022-12-08T01:09:28.879Z,100.00
2022-12-08T01:11:55.337Z,100.00
2022-12-08T01:14:21.786Z,100.00
2022-12-08T01:16:48.358Z,100.00
2022-12-08T01:19:15.553Z,100.00
2022-12-08T01:21:42.538Z,100.00
2022-12-08T01:24:12.852Z,100.00
2022-12-08T01:26:39.446Z,100.00
2022-12-08T01:29:05.908Z,100.00
2022-12-08T01:31:32.547Z,100.00
2022-12-08T01:33:58.957Z,100.00
2022-12-08T01:36:27.007Z,100.00
2022-12-08T01:38:53.909Z,99.59
2022-12-08T01:41:21.615Z,100.00
2022-12-08T01:43:51.056Z,100.00
2022-12-08T01:46:17.513Z,100.00
2022-12-08T01:48:44.018Z,100.00
2022-12-08T01:51:10.497Z,100.00
2022-12-08T01:53:37.047Z,100.00
2022-12-08T01:56:06.925Z,100.00
2022-12-08T01:58:37.807Z,100.00
2022-12-08T02:01:04.293Z,100.00
2022-12-08T02:03:42.463Z,100.00
2022-12-08T02:06:08.937Z,100.00
2022-12-08T02:08:35.967Z,100.00
2022-12-08T02:11:02.433Z,100.00
2022-12-08T02:13:28.859Z,100.00
2022-12-08T02:15:58.106Z,100.00
2022-12-08T02:18:30.599Z,100.00
2022-12-08T02:21:29.569Z,100.00
2022-12-08T02:23:59.134Z,100.00
2022-12-08T02:26:58.174Z,100.00
2022-12-08T02:29:37.665Z,100.00
2022-12-08T02:32:12.956Z,100.00
2022-12-08T02:34:43.637Z,100.00
2022-12-08T02:37:16.923Z,100.00
2022-12-08T02:39:58.131Z,100.00
2022-12-08T02:42:30.775Z,100.00
2022-12-08T02:45:04.095Z,100.00
2022-12-08T02:47:32.072Z,100.00
2022-12-08T02:49:58.861Z,100.00
2022-12-08T02:52:25.296Z,100.00
2022-12-08T02:54:53.835Z,100.00
2022-12-08T02:57:20.263Z,100.00
2022-12-08T03:00:16.463Z,100.00
2022-12-08T03:02:46.877Z,100.00
2022-12-08T03:05:25.986Z,100.00
2022-12-08T03:08:11.062Z,100.00
2022-12-08T03:10:40.736Z,100.00
2022-12-08T03:13:13.257Z,100.00
2022-12-08T03:15:40.630Z,100.00
2022-12-08T03:18:09.358Z,100.00
2022-12-08T03:20:36.067Z,100.00
2022-12-08T03:23:05.476Z,100.00
2022-12-08T03:25:33.970Z,100.00
2022-12-08T03:28:00.392Z,100.00
2022-12-08T03:30:28.647Z,100.00
2022-12-08T03:32:58.938Z,100.00
2022-12-08T03:35:30.514Z,100.00
2022-12-08T03:38:04.707Z,100.00
2022-12-08T03:40:31.378Z,100.00
2022-12-08T03:42:57.781Z,100.00
2022-12-08T03:45:24.313Z,100.00
2022-12-08T03:47:51.306Z,100.00
2022-12-08T03:50:17.954Z,100.00
2022-12-08T03:52:44.432Z,100.00
2022-12-08T03:55:10.995Z,100.00
2022-12-08T03:57:37.479Z,100.00
2022-12-08T04:00:05.114Z,100.00
2022-12-08T04:02:32.102Z,100.00
2022-12-08T04:04:58.584Z,100.00
2022-12-08T04:07:25.013Z,100.00
2022-12-08T04:09:51.485Z,100.00
2022-12-08T04:12:17.941Z,100.00
2022-12-08T04:14:44.405Z,100.00
2022-12-08T04:17:10.888Z,100.00
2022-12-08T04:19:37.323Z,100.00
2022-12-08T04:22:03.808Z,100.00
2022-12-08T04:24:30.322Z,100.00
2022-12-08T04:26:56.725Z,100.00
2022-12-08T04:29:23.310Z,100.00
2022-12-08T04:31:49.912Z,100.00
2022-12-08T04:34:16.588Z,100.00
2022-12-08T04:36:43.032Z,100.00
2022-12-08T04:39:09.513Z,100.00
2022-12-08T04:41:35.933Z,100.00
2022-12-08T04:44:02.519Z,100.00
2022-12-08T04:46:29.037Z,100.00
2022-12-08T04:48:55.493Z,100.00
2022-12-08T04:51:21.954Z,100.00
2022-12-08T04:53:48.440Z,100.00
2022-12-08T04:56:16.018Z,100.00
2022-12-08T04:58:42.663Z,100.00
2022-12-08T05:01:11.418Z,100.00
2022-12-08T05:03:37.917Z,100.00
2022-12-08T05:06:04.689Z,100.00
2022-12-08T05:08:32.113Z,100.00
2022-12-08T05:11:05.908Z,100.00
2022-12-08T05:13:32.461Z,100.00
2022-12-08T05:16:06.488Z,100.00
2022-12-08T05:18:33.272Z,100.00
2022-12-08T05:20:59.977Z,100.00
2022-12-08T05:23:26.798Z,100.00
2022-12-08T05:25:53.447Z,100.00
2022-12-08T05:28:40.719Z,100.00
2022-12-08T05:31:06.527Z,100.00
2022-12-08T05:33:32.998Z,100.00
2022-12-08T05:35:59.492Z,100.00
2022-12-08T05:38:25.953Z,100.00
2022-12-08T05:40:52.388Z,100.00
2022-12-08T05:43:18.800Z,100.00
2022-12-08T05:45:45.259Z,100.00
2022-12-08T05:48:11.721Z,100.00
2022-12-08T05:50:38.162Z,100.00
2022-12-08T05:53:04.609Z,100.00
2022-12-08T05:55:31.148Z,100.00
2022-12-08T05:57:57.564Z,100.00
2022-12-08T06:00:24.282Z,100.00
2022-12-08T06:02:50.817Z,100.00
2022-12-08T06:05:17.440Z,100.00
2022-12-08T06:07:43.977Z,100.00
2022-12-08T06:10:10.685Z,100.00
2022-12-08T06:12:37.201Z,100.00
2022-12-08T06:15:04.057Z,100.00
2022-12-08T06:17:30.463Z,100.00
2022-12-08T06:19:56.916Z,100.00
2022-12-08T06:22:23.336Z,100.00
2022-12-08T06:24:49.797Z,100.00
2022-12-08T06:27:16.240Z,100.00
2022-12-08T06:29:42.690Z,100.00
2022-12-08T06:32:09.199Z,100.00
2022-12-08T06:34:35.724Z,100.00
2022-12-08T06:37:02.187Z,100.00
2022-12-08T06:39:28.886Z,100.00
2022-12-08T06:42:14.117Z,100.00
2022-12-08T06:44:40.593Z,99.71
2022-12-08T06:47:07.054Z,100.00
2022-12-08T06:49:33.525Z,100.00
2022-12-08T06:52:00.068Z,100.00
2022-12-08T06:54:26.729Z,100.00
2022-12-08T06:56:53.269Z,100.00
2022-12-08T06:59:19.744Z,100.00
2022-12-08T07:01:46.505Z,100.00
2022-12-08T07:04:13.157Z,100.00
2022-12-08T07:06:39.694Z,100.00
2022-12-08T07:09:06.439Z,100.00
2022-12-08T07:11:32.891Z,100.00
2022-12-08T07:13:59.365Z,100.00
2022-12-08T07:16:25.939Z,100.00
2022-12-08T07:18:52.423Z,100.00
2022-12-08T07:21:18.858Z,100.00
2022-12-08T07:23:46.220Z,100.00
2022-12-08T07:26:13.227Z,100.00
2022-12-08T07:28:40.665Z,100.00
2022-12-08T07:31:08.358Z,100.00
2022-12-08T07:33:36.066Z,100.00
2022-12-08T07:36:04.516Z,100.00
2022-12-08T07:38:31.561Z,100.00
2022-12-08T07:40:58.008Z,100.00
2022-12-08T07:43:24.591Z,100.00
2022-12-08T07:45:51.168Z,100.00
2022-12-08T07:48:17.733Z,100.00
2022-12-08T07:50:44.723Z,100.00
2022-12-08T07:53:11.198Z,99.20
2022-12-08T07:55:44.250Z,100.00
2022-12-08T07:58:11.328Z,100.00
2022-12-08T08:00:37.870Z,100.00
2022-12-08T08:03:04.532Z,100.00
2022-12-08T08:05:31.069Z,100.00
2022-12-08T08:07:57.548Z,100.00
2022-12-08T08:10:24.059Z,100.00
2022-12-08T08:12:50.537Z,100.00
2022-12-08T08:15:17.835Z,100.00
2022-12-08T08:17:44.312Z,100.00
2022-12-08T08:20:11.443Z,100.00
2022-12-08T08:22:37.945Z,100.00
2022-12-08T08:25:04.541Z,100.00
2022-12-08T08:27:30.981Z,100.00
2022-12-08T08:29:57.430Z,100.00
2022-12-08T08:32:23.895Z,100.00
2022-12-08T08:34:50.828Z,100.00
2022-12-08T08:37:17.317Z,100.00
2022-12-08T08:39:43.794Z,100.00
2022-12-08T08:42:10.308Z,100.00
2022-12-08T08:44:38.834Z,100.00
2022-12-08T08:47:05.396Z,100.00
2022-12-08T08:49:31.846Z,100.00
2022-12-08T08:51:58.265Z,100.00
2022-12-08T08:54:24.718Z,100.00
2022-12-08T08:56:52.571Z,100.00
2022-12-08T08:59:19.176Z,100.00
2022-12-08T09:01:45.722Z,97.28
2022-12-08T09:04:12.294Z,99.59
2022-12-08T09:06:38.805Z,100.00
2022-12-08T09:09:05.396Z,100.00
2022-12-08T09:11:32.181Z,100.00
2022-12-08T09:13:58.713Z,100.00
2022-12-08T09:16:25.487Z,100.00
2022-12-08T09:18:52.161Z,100.00
2022-12-08T09:21:22.613Z,100.00
2022-12-08T09:23:50.096Z,100.00
2022-12-08T09:26:16.652Z,100.00
2022-12-08T09:28:46.387Z,100.00
2022-12-08T09:31:17.060Z,100.00
2022-12-08T09:33:43.721Z,100.00
2022-12-08T09:36:10.923Z,100.00
2022-12-08T09:38:38.149Z,100.00
2022-12-08T09:41:10.448Z,100.00
2022-12-08T09:44:02.598Z,100.00
2022-12-08T09:46:30.768Z,100.00
2022-12-08T09:48:58.194Z,100.00
2022-12-08T09:51:25.832Z,100.00
2022-12-08T09:53:55.061Z,100.00
2022-12-08T09:56:23.268Z,100.00
2022-12-08T09:58:55.290Z,100.00
2022-12-08T10:01:22.960Z,99.39
2022-12-08T10:03:49.682Z,100.00
2022-12-08T10:06:39.453Z,100.00
2022-12-08T10:09:23.160Z,100.00
2022-12-08T10:11:58.744Z,100.00
2022-12-08T10:14:25.163Z,100.00
2022-12-08T10:16:55.591Z,99.47
2022-12-08T10:19:23.340Z,98.86
2022-12-08T10:21:50.308Z,99.48
2022-12-08T10:24:17.212Z,98.81
2022-12-08T10:26:44.116Z,98.80
2022-12-08T10:29:13.599Z,97.74
2022-12-08T10:31:40.186Z,98.20
2022-12-08T10:34:17.872Z,97.80
2022-12-08T10:36:46.233Z,97.31
2022-12-08T10:39:28.749Z,97.95
2022-12-08T10:42:00.357Z,97.56
2022-12-08T10:44:27.148Z,96.95
2022-12-08T10:46:53.741Z,96.28
2022-12-08T10:49:28.889Z,95.97
2022-12-08T10:51:55.396Z,94.92
2022-12-08T10:54:32.309Z,94.79
2022-12-08T10:56:58.997Z,93.98
2022-12-08T10:59:25.750Z,94.88
2022-12-08T11:01:54.417Z,94.63
2022-12-08T11:04:30.993Z,96.49
2022-12-08T11:06:57.561Z,96.43
2022-12-08T11:09:26.018Z,97.14
2022-12-08T11:12:09.837Z,97.66
2022-12-08T11:14:36.254Z,93.74
2022-12-08T11:17:05.590Z,95.55
2022-12-08T11:19:36.736Z,94.71
2022-12-08T11:22:20.054Z,94.95
2022-12-08T11:24:56.233Z,94.44
2022-12-08T11:27:22.765Z,95.19
2022-12-08T11:29:49.224Z,95.17
2022-12-08T11:32:15.743Z,95.13
2022-12-08T11:34:44.775Z,96.60
2022-12-08T11:37:18.198Z,98.57
2022-12-08T11:39:47.378Z,99.45
2022-12-08T11:42:15.939Z,99.47
2022-12-08T11:44:46.708Z,98.50
2022-12-08T11:47:17.717Z,98.30
2022-12-08T11:52:22.502Z,95.80
2022-12-08T11:54:52.441Z,96.84
2022-12-08T11:57:20.902Z,94.56
2022-12-08T11:59:49.681Z,91.88
2022-12-08T12:02:24.157Z,93.46
2022-12-08T12:04:59.688Z,90.11
2022-12-08T12:07:45.263Z,92.55
2022-12-08T12:10:14.830Z,94.45
2022-12-08T12:12:58.370Z,92.85
2022-12-08T12:15:30.938Z,94.35
2022-12-08T12:18:05.411Z,94.88
2022-12-08T12:20:33.581Z,94.46
2022-12-08T12:23:06.343Z,93.48
2022-12-08T12:25:35.271Z,92.86
2022-12-08T12:28:06.958Z,93.30
2022-12-08T12:30:52.538Z,92.72
2022-12-08T12:33:19.808Z,93.39
2022-12-08T12:35:48.167Z,93.55
2022-12-08T12:38:50.039Z,93.22
2022-12-08T12:41:25.334Z,93.78
2022-12-08T12:44:11.357Z,94.68
2022-12-08T12:46:40.042Z,95.16
2022-12-08T12:49:25.093Z,91.74
2022-12-08T12:51:55.474Z,95.63
2022-12-08T12:54:26.200Z,96.16
2022-12-08T12:56:52.652Z,95.15
2022-12-08T12:59:31.161Z,95.27
2022-12-08T13:01:58.278Z,94.53
2022-12-08T13:04:33.118Z,94.54
2022-12-08T13:06:59.794Z,95.45
2022-12-08T13:09:31.745Z,96.56
2022-12-08T13:11:59.900Z,96.88
2022-12-08T13:14:28.326Z,96.17
2022-12-08T13:16:56.234Z,95.04
2022-12-08T13:19:22.866Z,94.41
2022-12-08T13:21:49.305Z,93.75
2022-12-08T13:24:27.721Z,94.81
2022-12-08T13:27:03.204Z,95.67
2022-12-08T13:29:30.109Z,95.80
2022-12-08T13:31:56.984Z,96.29
2022-12-08T13:34:42.061Z,96.85
2022-12-08T13:37:11.492Z,96.68
2022-12-08T13:39:40.830Z,96.81
2022-12-08T13:42:16.515Z,97.55
2022-12-08T13:48:20.860Z,96.97
2022-12-08T13:59:20.374Z,96.56
2022-12-08T14:01:50.688Z,96.10
2022-12-08T14:04:47.494Z,95.41
2022-12-08T14:07:09.474Z,95.58
2022-12-08T14:09:37.132Z,95.30
2022-12-08T14:12:06.558Z,95.97
2022-12-08T14:15:01.848Z,96.80
2022-12-08T14:17:26.095Z,96.34
2022-12-08T14:20:00.335Z,97.96
2022-12-08T14:22:33.876Z,97.40
2022-12-08T14:25:00.400Z,97.47
2022-12-08T14:27:29.990Z,97.62
2022-12-08T14:29:57.856Z,93.59
2022-12-08T14:32:34.831Z,92.74
2022-12-08T14:35:07.636Z,94.40
2022-12-08T14:37:54.667Z,94.57
2022-12-08T14:40:23.925Z,94.45
2022-12-08T14:43:05.029Z,95.56
2022-12-08T14:45:34.984Z,94.61
2022-12-08T14:48:20.195Z,94.62
2022-12-08T14:50:57.356Z,95.33
2022-12-08T14:53:24.206Z,96.61
2022-12-08T14:55:51.377Z,97.38
2022-12-08T14:58:25.721Z,98.38
2022-12-08T15:00:54.574Z,97.47
2022-12-08T15:03:21.855Z,96.97
2022-12-08T15:05:51.543Z,97.30
2022-12-08T15:08:18.552Z,97.09
2022-12-08T15:10:48.139Z,96.07
2022-12-08T15:13:16.322Z,95.37
2022-12-08T15:15:53.387Z,96.47
2022-12-08T15:18:31.233Z,96.91
2022-12-08T15:21:02.026Z,96.48
2022-12-08T15:23:30.680Z,96.27
2022-12-08T15:25:57.427Z,96.49
2022-12-08T15:28:29.514Z,95.70
2022-12-08T15:30:57.313Z,95.65
2022-12-08T15:33:24.023Z,95.47
2022-12-08T15:35:50.873Z,95.57
2022-12-08T15:38:28.640Z,96.05
2022-12-08T15:40:56.090Z,96.15
2022-12-08T15:43:22.675Z,96.57
2022-12-08T15:45:58.347Z,95.22
2022-12-08T15:48:29.225Z,95.75
2022-12-08T15:50:56.381Z,95.67
2022-12-08T15:53:22.843Z,95.50
2022-12-08T15:56:18.992Z,94.92
2022-12-08T15:58:54.275Z,95.35
2022-12-08T16:01:22.111Z,95.44
2022-12-08T16:09:25.477Z,94.86
2022-12-08T16:12:10.834Z,95.06
2022-12-08T16:17:24.498Z,94.50
2022-12-08T16:19:51.018Z,94.73
2022-12-08T16:25:22.393Z,97.61
2022-12-08T16:28:01.453Z,98.07
2022-12-08T16:30:29.970Z,98.36
2022-12-08T16:32:56.366Z,98.60
2022-12-08T16:35:22.788Z,98.71
2022-12-08T16:37:49.259Z,99.14
2022-12-08T16:40:15.764Z,98.84
2022-12-08T16:42:49.992Z,99.17
2022-12-08T16:45:16.638Z,99.14
2022-12-08T16:47:47.825Z,99.51
2022-12-08T16:50:19.554Z,99.40
2022-12-08T16:52:46.554Z,99.29
2022-12-08T16:55:17.517Z,100.00
2022-12-08T16:57:44.528Z,100.00
2022-12-08T17:00:17.369Z,100.00
2022-12-08T17:02:45.284Z,99.76
2022-12-08T17:05:16.139Z,99.11
2022-12-08T17:07:43.897Z,99.29
2022-12-08T17:10:12.301Z,99.82
2022-12-08T17:12:38.762Z,98.75
2022-12-08T17:15:06.556Z,99.44
2022-12-08T17:17:35.297Z,99.34
2022-12-08T17:20:04.883Z,99.05
2022-12-08T17:22:32.290Z,98.45
2022-12-08T17:24:58.828Z,98.18
2022-12-08T17:27:25.314Z,98.04
2022-12-08T17:29:51.737Z,97.72
2022-12-08T17:32:18.718Z,98.49
2022-12-08T17:34:45.669Z,98.44
2022-12-08T17:37:12.226Z,98.13
2022-12-08T17:39:38.806Z,98.13
2022-12-08T17:42:07.169Z,97.61
2022-12-08T17:44:33.735Z,97.19
2022-12-08T17:47:00.387Z,96.61
2022-12-08T17:49:29.717Z,96.87
2022-12-08T17:51:57.589Z,95.71
2022-12-08T17:54:24.537Z,95.73
2022-12-08T17:56:51.435Z,95.87
2022-12-08T17:59:18.393Z,95.80
2022-12-08T18:01:45.107Z,95.81
2022-12-08T18:04:12.254Z,95.46
2022-12-08T18:06:39.278Z,94.92
2022-12-08T18:09:06.984Z,94.91
2022-12-08T18:11:34.277Z,95.42
2022-12-08T18:14:03.208Z,96.06
2022-12-08T18:16:30.454Z,96.55
2022-12-08T18:18:56.972Z,95.42
2022-12-08T18:21:23.949Z,94.86
2022-12-08T18:23:50.669Z,94.65
2022-12-08T18:26:17.165Z,94.75
2022-12-08T18:28:43.653Z,93.67
2022-12-08T18:31:11.697Z,94.44
2022-12-08T18:33:39.806Z,94.77
2022-12-08T18:36:10.489Z,94.29
2022-12-08T18:38:37.701Z,93.74
2022-12-08T18:41:07.163Z,93.47
2022-12-08T18:43:34.014Z,93.10
2022-12-08T18:46:01.419Z,92.79
2022-12-08T18:48:27.972Z,92.26
2022-12-08T18:50:54.397Z,91.89
2022-12-08T18:53:20.891Z,91.91
2022-12-08T18:55:47.541Z,91.50
2022-12-08T18:58:14.505Z,91.67
2022-12-08T19:00:40.960Z,91.18
2022-12-08T19:03:07.457Z,91.26
2022-12-08T19:05:33.950Z,91.25
2022-12-08T19:08:00.483Z,91.48
2022-12-08T19:10:27.018Z,90.40
2022-12-08T19:12:53.591Z,89.95
2022-12-08T19:15:20.436Z,90.53
2022-12-08T19:17:46.854Z,92.23
2022-12-08T19:20:13.550Z,91.46
2022-12-08T19:22:40.032Z,91.26
2022-12-08T19:25:06.646Z,92.27
2022-12-08T19:27:34.173Z,91.96
2022-12-08T19:30:00.608Z,91.86
2022-12-08T19:32:27.130Z,91.31
2022-12-08T19:34:53.652Z,91.13
2022-12-08T19:37:20.085Z,91.74
2022-12-08T19:40:05.744Z,91.16
2022-12-08T19:42:51.171Z,91.18
2022-12-08T19:45:19.920Z,90.82
2022-12-08T19:47:46.638Z,90.15
2022-12-08T19:50:49.777Z,89.22
2022-12-08T19:53:16.701Z,89.98
2022-12-08T19:55:43.831Z,89.88
2022-12-08T19:58:11.112Z,90.70
2022-12-08T20:00:39.114Z,90.80
2022-12-08T20:03:06.257Z,90.34
2022-12-08T20:05:33.869Z,90.49
2022-12-08T20:08:00.344Z,91.01
2022-12-08T20:10:33.778Z,90.87
2022-12-08T20:13:19.067Z,90.32
2022-12-08T20:15:45.698Z,90.68
2022-12-08T20:18:12.823Z,91.47
2022-12-08T20:20:39.672Z,91.31
2022-12-08T20:23:06.485Z,92.02
2022-12-08T20:25:33.079Z,92.24
2022-12-08T20:27:59.605Z,91.52
2022-12-08T20:30:26.114Z,90.96
2022-12-08T20:32:52.566Z,91.94
2022-12-08T20:35:19.014Z,91.78
2022-12-08T20:37:45.524Z,91.71
2022-12-08T20:40:12.126Z,91.45
2022-12-08T20:42:38.576Z,91.89
2022-12-08T20:45:07.245Z,90.93
2022-12-08T20:47:34.071Z,89.97
2022-12-08T20:50:00.703Z,89.98
2022-12-08T20:52:27.238Z,91.25
2022-12-08T20:54:53.863Z,91.50
2022-12-08T20:57:20.403Z,91.52
2022-12-08T20:59:46.922Z,90.89
2022-12-08T21:02:13.454Z,90.30
2022-12-08T21:04:40.212Z,90.07
2022-12-08T21:07:08.921Z,90.31
2022-12-08T21:09:36.241Z,90.39
2022-12-08T21:12:02.854Z,90.89
2022-12-08T21:14:29.427Z,90.92
2022-12-08T21:16:56.254Z,90.25
2022-12-08T21:19:22.809Z,90.77
2022-12-08T21:21:50.809Z,90.83
2022-12-08T21:24:18.066Z,91.50
2022-12-08T21:26:45.914Z,91.31
2022-12-08T21:29:12.868Z,90.76
2022-12-08T21:31:39.817Z,91.21
2022-12-08T21:34:06.695Z,91.45
2022-12-08T21:36:33.387Z,91.25
2022-12-08T21:39:02.423Z,92.01
2022-12-08T21:41:47.701Z,91.57
2022-12-08T21:44:15.560Z,90.26
2022-12-08T21:46:42.425Z,91.12
2022-12-08T21:49:09.276Z,90.90
2022-12-08T21:51:37.901Z,90.64
2022-12-08T21:54:04.954Z,90.91
2022-12-08T21:56:31.843Z,91.05
2022-12-08T21:58:58.361Z,91.51
2022-12-08T22:01:24.947Z,90.79
2022-12-08T22:03:51.797Z,91.04
2022-12-08T22:06:18.382Z,91.89
2022-12-08T22:08:45.226Z,91.96
2022-12-08T22:11:12.163Z,91.86
2022-12-08T22:13:39.763Z,91.45
2022-12-08T22:16:08.120Z,91.94
2022-12-08T22:18:35.615Z,91.64
2022-12-08T22:21:02.568Z,91.83
2022-12-08T22:23:29.267Z,92.24
2022-12-08T22:25:59.647Z,91.80
2022-12-08T22:28:27.128Z,91.61
2022-12-08T22:30:54.794Z,91.55
2022-12-08T22:33:21.339Z,91.46
2022-12-08T22:35:57.962Z,91.40
2022-12-08T22:38:25.052Z,91.69
2022-12-08T22:40:52.242Z,91.49
2022-12-08T22:43:18.752Z,91.70
2022-12-08T22:45:45.371Z,91.66
2022-12-08T22:48:12.034Z,91.72
2022-12-08T22:50:38.627Z,91.42
2022-12-08T22:53:05.358Z,91.82
2022-12-08T22:55:31.889Z,91.41
2022-12-08T22:57:58.573Z,91.68
2022-12-08T23:00:25.110Z,91.45
2022-12-08T23:02:51.748Z,91.27
2022-12-08T23:05:18.533Z,91.48
2022-12-08T23:07:45.451Z,90.78
2022-12-08T23:10:12.282Z,90.30
2022-12-08T23:12:38.969Z,89.81
2022-12-08T23:15:05.732Z,90.57
2022-12-08T23:17:32.478Z,91.58
2022-12-08T23:19:59.244Z,91.87
2022-12-08T23:22:25.861Z,92.87
2022-12-08T23:24:52.378Z,90.93
2022-12-08T23:27:19.127Z,89.51
2022-12-08T23:29:45.837Z,88.61
2022-12-08T23:32:12.427Z,88.34
2022-12-08T23:34:38.899Z,91.56
2022-12-08T23:37:05.356Z,92.28
2022-12-08T23:39:32.089Z,92.14
2022-12-08T23:41:58.549Z,93.21
2022-12-08T23:44:25.099Z,93.84
2022-12-08T23:46:51.701Z,93.98
2022-12-08T23:49:18.241Z,94.32
2022-12-08T23:51:44.810Z,94.43
2022-12-08T23:54:11.341Z,94.36
2022-12-08T23:56:37.852Z,94.33
2022-12-08T23:59:04.323Z,93.75
